KWWR/WWR METAR and TAF weather

Enter ICAO airport designator
Station Type Date Time Source
KWWR METAR 2020/04/07 16:55 UTC NOAA

KWWR 071655Z AUTO 29006KT 10SM CLR 27/01 A2987 RMK AO2


Station Type Date Time Source
KWWR Decoded METAR 2020/04/07 16:55 UTC NOAA

Woodward, West Woodward Airport, OK, United States (KWWR) 36-26-12N 099-31-16W 667M
Apr 07, 2020 - 12:55 PM EDT / 2020.04.07 1655 UTC
Wind: from the WNW (290 degrees) at 7 MPH (6 KT):0
Visibility: 10 mile(s):0
Sky conditions: clear
Temperature: 80 F (27 C)
Dew Point: 33 F (1 C)
Relative Humidity: 18%
Pressure (altimeter): 29.87 in. Hg (1011 hPa)
ob: KWWR 071655Z AUTO 29006KT 10SM CLR 27/01 A2987 RMK AO2
cycle: 17

Station Type Date Time Source
KWWR TAF 2020/04/07 12:30 UTC NOAA

TAF KWWR 071127Z 0712/0812 23012KT P6SM BKN250
FM071700 34012KT P6SM SCT250
FM080200 06008KT P6SM FEW250

Example: see airport list